Wetterstation Vordersexau
Wetterdaten: Woche 05.03.12 - 11.03.12 (KW10)
Datum Zeit Temp. A. Feuchte A. Luftdruck Regen Wind Richtung Taupunkt Windchill Windben
05.03.2012 00:00 4,9 C 86 % 1012,5 hPa 0,0 l/m 0,0 km/h NO 2,8 C 4,9 C 0,0 km/h
05.03.2012 01:00 5,3 C 85 % 1012,4 hPa 0,0 l/m 0,0 km/h O-NO 3,0 C 5,3 C 0,0 km/h
05.03.2012 02:00 5,3 C 86 % 1012,8 hPa 0,4 l/m 0,0 km/h O-SO 3,2 C 5,3 C 0,0 km/h
05.03.2012 03:00 5,8 C 85 % 1012,5 hPa 1,1 l/m 0,0 km/h N-NW 3,5 C 5,8 C 0,0 km/h
05.03.2012 04:00 4,5 C 86 % 1015,4 hPa 1,8 l/m 0,0 km/h W 2,4 C 4,5 C 0,0 km/h
05.03.2012 05:00 3,8 C 86 % 1017,1 hPa 0,4 l/m 22,7 km/h S-SW 1,7 C -5,8 C 12,6 km/h
05.03.2012 06:00 3,8 C 86 % 1018,2 hPa 0,0 l/m 20,1 km/h W-SW 1,7 C -4,8 C 11,2 km/h
05.03.2012 07:00 3,8 C 85 % 1019,0 hPa 0,0 l/m 25,3 km/h SW 1,5 C -6,7 C 14,0 km/h
05.03.2012 08:00 3,4 C 86 % 1020,0 hPa 0,0 l/m 25,9 km/h SW 1,3 C -7,4 C 14,4 km/h
05.03.2012 09:00 3,6 C 85 % 1020,6 hPa 0,0 l/m 26,6 km/h W-SW 1,3 C -7,4 C 14,8 km/h
05.03.2012 10:00 4,7 C 80 % 1020,9 hPa 0,0 l/m 36,9 km/h W-SW 1,6 C -8,4 C 20,5 km/h
05.03.2012 11:00 5,3 C 75 % 1021,0 hPa 0,0 l/m 32,4 km/h W-SW 1,2 C -6,5 C 18,0 km/h
05.03.2012 12:00 5,9 C 69 % 1020,9 hPa 0,0 l/m 60,3 km/h W 0,7 C -9,6 C 33,5 km/h
05.03.2012 13:00 5,9 C 67 % 1020,9 hPa 0,0 l/m 37,6 km/h W-SW 0,3 C -6,8 C 20,9 km/h
05.03.2012 14:00 5,8 C 64 % 1020,8 hPa 0,0 l/m 24,0 km/h SW -0,5 C -3,5 C 13,3 km/h
05.03.2012 15:00 6,2 C 62 % 1020,7 hPa 0,0 l/m 19,4 km/h W-SW -0,5 C -1,4 C 10,8 km/h
05.03.2012 16:00 5,8 C 61 % 1020,2 hPa 0,0 l/m 22,7 km/h W-SW -1,1 C -3,1 C 12,6 km/h
05.03.2012 17:00 5,5 C 59 % 1020,2 hPa 0,0 l/m 12,3 km/h S -1,9 C 1,2 C 6,8 km/h
05.03.2012 18:00 3,8 C 65 % 1020,2 hPa 0,0 l/m 0,0 km/h SO -2,2 C 3,8 C 0,0 km/h
05.03.2012 19:00 3,6 C 69 % 1020,2 hPa 0,0 l/m 1,9 km/h S-SO -1,5 C 3,6 C 1,1 km/h
05.03.2012 20:00 3,9 C 68 % 1020,5 hPa 0,0 l/m 5,2 km/h S-SO -1,5 C 3,9 C 2,9 km/h
05.03.2012 21:00 4,0 C 69 % 1020,5 hPa 0,0 l/m 4,5 km/h SO -1,2 C 4,0 C 2,5 km/h
05.03.2012 22:00 4,0 C 69 % 1020,5 hPa 0,0 l/m 3,9 km/h O-SO -1,2 C 4,0 C 2,2 km/h
05.03.2012 23:00 3,6 C 71 % 1020,4 hPa 0,0 l/m 0,0 km/h O-SO -1,2 C 3,6 C 0,0 km/h
06.03.2012 00:00 1,8 C 75 % 1020,1 hPa 0,0 l/m 0,0 km/h O-SO -2,1 C 1,8 C 0,0 km/h
06.03.2012 01:00 1,6 C 80 % 1020,3 hPa 0,0 l/m 0,0 km/h O-NO -1,5 C 1,6 C 0,0 km/h
06.03.2012 02:00 1,3 C 81 % 1020,3 hPa 0,0 l/m 0,0 km/h O -1,6 C 1,3 C 0,0 km/h
06.03.2012 03:00 0,1 C 82 % 1019,6 hPa 0,0 l/m 0,0 km/h O -2,6 C 0,1 C 0,0 km/h
06.03.2012 04:00 -0,6 C 84 % 1019,8 hPa 0,0 l/m 0,0 km/h NO -3,0 C -0,6 C 0,0 km/h
06.03.2012 05:00 -1,0 C 85 % 1020,0 hPa 0,0 l/m 0,0 km/h O -3,2 C -1,0 C 0,0 km/h
06.03.2012 06:00 -1,1 C 85 % 1020,3 hPa 0,0 l/m 0,0 km/h O-SO -3,3 C -1,1 C 0,0 km/h
06.03.2012 07:00 -0,6 C 86 % 1020,5 hPa 0,0 l/m 0,0 km/h O-SO -2,6 C -0,6 C 0,0 km/h
06.03.2012 08:00 2,6 C 81 % 1021,0 hPa 0,0 l/m 7,8 km/h O-SO -0,3 C 1,3 C 4,3 km/h
06.03.2012 09:00 6,9 C 71 % 1021,4 hPa 0,0 l/m 0,0 km/h W 2,0 C 6,9 C 0,0 km/h
06.03.2012 10:00 12,7 C 54 % 1021,5 hPa 0,0 l/m 0,0 km/h W-SW 3,6 C 12,7 C 0,0 km/h
06.03.2012 11:00 13,8 C 44 % 1021,5 hPa 0,0 l/m 9,7 km/h N-NO 1,8 C 11,9 C 5,4 km/h
06.03.2012 12:00 12,6 C 45 % 1021,4 hPa 0,0 l/m 0,0 km/h O-SO 1,0 C 12,6 C 0,0 km/h
06.03.2012 13:00 9,6 C 48 % 1021,1 hPa 0,0 l/m 0,0 km/h O-SO -0,9 C 9,6 C 0,0 km/h
06.03.2012 14:00 13,4 C 41 % 1020,8 hPa 0,0 l/m 20,7 km/h O-SO 0,4 C 7,5 C 11,5 km/h
06.03.2012 15:00 11,3 C 40 % 1020,6 hPa 0,0 l/m 2,6 km/h NO -1,8 C 11,3 C 1,4 km/h
06.03.2012 16:00 16,4 C 33 % 1020,9 hPa 0,0 l/m 0,0 km/h O-NO 0,1 C 16,4 C 0,0 km/h
06.03.2012 17:00 9,2 C 44 % 1021,6 hPa 0,0 l/m 0,0 km/h SO -2,4 C 9,2 C 0,0 km/h
06.03.2012 18:00 7,5 C 49 % 1022,4 hPa 0,0 l/m 0,0 km/h O-SO -2,5 C 7,5 C 0,0 km/h
06.03.2012 19:00 6,1 C 52 % 1023,0 hPa 0,0 l/m 9,1 km/h O-SO -3,0 C 3,9 C 5,0 km/h
06.03.2012 20:00 5,9 C 53 % 1023,6 hPa 0,0 l/m 0,0 km/h SO -2,9 C 5,9 C 0,0 km/h
06.03.2012 21:00 5,8 C 56 % 1023,7 hPa 0,0 l/m 11,7 km/h O-SO -2,3 C 1,9 C 6,5 km/h
06.03.2012 22:00 5,2 C 60 % 1024,0 hPa 0,0 l/m 13,6 km/h O-SO -1,9 C 0,1 C 7,6 km/h
06.03.2012 23:00 4,7 C 63 % 1024,0 hPa 0,0 l/m 0,0 km/h NO -1,7 C 4,7 C 0,0 km/h
07.03.2012 00:00 3,1 C 69 % 1024,3 hPa 0,0 l/m 0,0 km/h NO -2,0 C 3,1 C 0,0 km/h
07.03.2012 01:00 1,9 C 72 % 1024,5 hPa 0,0 l/m 0,0 km/h O-SO -2,6 C 1,9 C 0,0 km/h
07.03.2012 02:00 0,3 C 76 % 1024,1 hPa 0,0 l/m 0,0 km/h SO -3,4 C 0,3 C 0,0 km/h
07.03.2012 03:00 0,1 C 79 % 1023,7 hPa 0,0 l/m 0,6 km/h SO -3,1 C 0,1 C 0,4 km/h
07.03.2012 04:00 -1,3 C 80 % 1024,1 hPa 0,0 l/m 0,0 km/h O-SO -4,3 C -1,3 C 0,0 km/h
07.03.2012 05:00 -1,8 C 83 % 1024,3 hPa 0,0 l/m 0,0 km/h O-SO -4,3 C -1,8 C 0,0 km/h
07.03.2012 06:00 -1,9 C 84 % 1024,2 hPa 0,0 l/m 0,0 km/h SO -4,2 C -1,9 C 0,0 km/h
07.03.2012 07:00 -1,6 C 85 % 1024,5 hPa 0,0 l/m 1,9 km/h N-NO -3,8 C -1,6 C 1,1 km/h
07.03.2012 08:00 1,9 C 80 % 1025,0 hPa 0,0 l/m 0,0 km/h W-SW -1,2 C 1,9 C 0,0 km/h
07.03.2012 09:00 7,5 C 65 % 1024,6 hPa 0,0 l/m 0,0 km/h W 1,4 C 7,5 C 0,0 km/h
07.03.2012 10:00 11,4 C 56 % 1024,5 hPa 0,0 l/m 1,9 km/h W-NW 2,9 C 11,4 C 1,1 km/h
07.03.2012 11:00 11,2 C 52 % 1024,1 hPa 0,0 l/m 2,6 km/h S-SW 1,7 C 11,2 C 1,4 km/h
07.03.2012 12:00 11,3 C 50 % 1022,9 hPa 0,0 l/m 17,5 km/h SW 1,3 C 5,8 C 9,7 km/h
07.03.2012 13:00 11,9 C 46 % 1021,5 hPa 0,0 l/m 5,8 km/h SW 0,7 C 11,9 C 3,2 km/h
07.03.2012 14:00 12,3 C 46 % 1020,7 hPa 0,0 l/m 18,8 km/h SW 1,0 C 6,6 C 10,4 km/h
07.03.2012 15:00 11,1 C 50 % 1019,5 hPa 0,0 l/m 22,7 km/h S-SW 1,1 C 3,9 C 12,6 km/h
07.03.2012 16:00 9,8 C 51 % 1018,4 hPa 0,0 l/m 22,7 km/h SW 0,2 C 2,2 C 12,6 km/h
07.03.2012 17:00 8,7 C 57 % 1017,9 hPa 0,0 l/m 18,8 km/h SW 0,7 C 2,0 C 10,4 km/h
07.03.2012 18:00 7,8 C 59 % 1018,2 hPa 0,0 l/m 36,9 km/h W-SW 0,3 C -3,8 C 20,5 km/h
07.03.2012 19:00 7,0 C 62 % 1018,3 hPa 0,0 l/m 18,1 km/h W-SW 0,2 C 0,1 C 10,1 km/h
07.03.2012 20:00 6,9 C 60 % 1017,7 hPa 0,0 l/m 35,6 km/h SW -0,3 C -4,9 C 19,8 km/h
07.03.2012 21:00 6,5 C 64 % 1018,0 hPa 0,0 l/m 42,1 km/h SW 0,2 C -6,6 C 23,4 km/h
07.03.2012 22:00 6,4 C 66 % 1017,8 hPa 0,0 l/m 18,1 km/h W-SW 0,5 C -0,6 C 10,1 km/h
07.03.2012 23:00 6,2 C 69 % 1017,2 hPa 0,0 l/m 27,9 km/h S-SW 0,9 C -4,1 C 15,5 km/h
08.03.2012 00:00 5,9 C 73 % 1017,2 hPa 0,0 l/m 23,3 km/h S-SW 1,4 C -3,2 C 13,0 km/h
08.03.2012 01:00 4,5 C 81 % 1017,2 hPa 0,0 l/m 26,6 km/h W 1,5 C -6,1 C 14,8 km/h
08.03.2012 02:00 4,1 C 84 % 1017,7 hPa 0,4 l/m 26,6 km/h W-SW 1,6 C -6,7 C 14,8 km/h
08.03.2012 03:00 3,8 C 85 % 1017,9 hPa 0,0 l/m 24,0 km/h W-SW 1,5 C -6,2 C 13,3 km/h
08.03.2012 04:00 3,3 C 86 % 1018,8 hPa 0,4 l/m 7,8 km/h W-SW 1,2 C 2,0 C 4,3 km/h
08.03.2012 05:00 2,9 C 86 % 1020,0 hPa 0,7 l/m 3,9 km/h S 0,8 C 2,9 C 2,2 km/h
08.03.2012 06:00 2,8 C 86 % 1020,9 hPa 0,7 l/m 9,7 km/h S-SO 0,7 C -0,1 C 5,4 km/h
08.03.2012 07:00 2,7 C 86 % 1022,2 hPa 0,0 l/m 0,0 km/h O-SO 0,6 C 2,7 C 0,0 km/h
08.03.2012 08:00 3,5 C 86 % 1023,2 hPa 0,4 l/m 0,0 km/h O 1,4 C 3,5 C 0,0 km/h
08.03.2012 09:00 5,1 C 86 % 1024,2 hPa 0,0 l/m 0,0 km/h W 3,0 C 5,1 C 0,0 km/h
08.03.2012 10:00 11,6 C 69 % 1025,0 hPa 0,0 l/m 0,0 km/h S 6,1 C 11,6 C 0,0 km/h
08.03.2012 11:00 8,6 C 69 % 1025,4 hPa 0,0 l/m 0,0 km/h N-NO 3,2 C 8,6 C 0,0 km/h
08.03.2012 12:00 8,1 C 67 % 1026,1 hPa 0,0 l/m 7,1 km/h S-SO 2,3 C 7,6 C 4,0 km/h
08.03.2012 13:00 9,5 C 67 % 1026,1 hPa 0,0 l/m 2,6 km/h N-NO 3,7 C 9,5 C 1,4 km/h
08.03.2012 14:00 11,1 C 51 % 1026,7 hPa 0,0 l/m 0,0 km/h S-SO 1,4 C 11,1 C 0,0 km/h
08.03.2012 15:00 7,5 C 65 % 1027,6 hPa 0,0 l/m 0,0 km/h S-SO 1,4 C 7,5 C 0,0 km/h
08.03.2012 16:00 12,6 C 55 % 1027,7 hPa 0,0 l/m 5,2 km/h O-SO 3,8 C 12,6 C 2,9 km/h
08.03.2012 17:00 6,6 C 67 % 1028,4 hPa 0,0 l/m 25,9 km/h O-SO 0,9 C -3,0 C 14,4 km/h
08.03.2012 18:00 3,8 C 75 % 1029,4 hPa 0,0 l/m 0,0 km/h O-NO -0,2 C 3,8 C 0,0 km/h
08.03.2012 19:00 2,1 C 81 % 1030,6 hPa 0,0 l/m 0,0 km/h O-NO -0,8 C 2,1 C 0,0 km/h
08.03.2012 20:00 1,5 C 83 % 1031,4 hPa 0,0 l/m 0,0 km/h O-SO -1,1 C 1,5 C 0,0 km/h
08.03.2012 21:00 1,3 C 85 % 1031,9 hPa 0,0 l/m 0,0 km/h O-NO -0,9 C 1,3 C 0,0 km/h
08.03.2012 22:00 0,7 C 85 % 1032,6 hPa 0,0 l/m 0,0 km/h O-NO -1,5 C 0,7 C 0,0 km/h
08.03.2012 23:00 0,5 C 86 % 1033,1 hPa 0,0 l/m 0,0 km/h O-SO -1,6 C 0,5 C 0,0 km/h
09.03.2012 00:00 -0,5 C 86 % 1033,5 hPa 0,0 l/m 0,0 km/h N-NO -2,5 C -0,5 C 0,0 km/h
09.03.2012 01:00 -0,7 C 86 % 1033,5 hPa 0,0 l/m 0,0 km/h O-SO -2,7 C -0,7 C 0,0 km/h
09.03.2012 02:00 -0,9 C 86 % 1033,7 hPa 0,0 l/m 0,0 km/h O-NO -2,9 C -0,9 C 0,0 km/h
09.03.2012 03:00 -1,9 C 86 % 1033,8 hPa 0,0 l/m 0,0 km/h NO -3,9 C -1,9 C 0,0 km/h
09.03.2012 04:00 -2,3 C 86 % 1034,1 hPa 0,0 l/m 0,0 km/h O-NO -4,3 C -2,3 C 0,0 km/h
09.03.2012 05:00 -2,4 C 86 % 1034,0 hPa 0,0 l/m 0,0 km/h NO -4,4 C -2,4 C 0,0 km/h
09.03.2012 06:00 -2,6 C 86 % 1034,3 hPa 0,0 l/m 0,0 km/h O-NO -4,6 C -2,6 C 0,0 km/h
09.03.2012 07:00 -2,7 C 86 % 1035,2 hPa 0,0 l/m 0,0 km/h O-NO -4,7 C -2,7 C 0,0 km/h
09.03.2012 08:00 1,2 C 84 % 1035,3 hPa 0,0 l/m 0,0 km/h N-NO -1,2 C 1,2 C 0,0 km/h
09.03.2012 09:00 7,1 C 81 % 1035,4 hPa 0,0 l/m 0,0 km/h W 4,1 C 7,1 C 0,0 km/h
09.03.2012 10:00 11,2 C 61 % 1035,7 hPa 0,0 l/m 1,9 km/h W 4,0 C 11,2 C 1,1 km/h
09.03.2012 11:00 14,3 C 53 % 1035,4 hPa 0,0 l/m 0,0 km/h O 4,9 C 14,3 C 0,0 km/h
09.03.2012 12:00 14,8 C 47 % 1034,6 hPa 0,0 l/m 0,0 km/h N 3,6 C 14,8 C 0,0 km/h
09.03.2012 13:00 14,1 C 45 % 1033,9 hPa 0,0 l/m 0,0 km/h SW 2,4 C 14,1 C 0,0 km/h
09.03.2012 14:00 15,8 C 38 % 1033,6 hPa 0,0 l/m 23,3 km/h N-NO 1,5 C 10,0 C 13,0 km/h
09.03.2012 15:00 19,2 C 32 % 1033,2 hPa 0,0 l/m 3,2 km/h O-NO 2,1 C 19,2 C 1,8 km/h
09.03.2012 16:00 19,4 C 28 % 1033,2 hPa 0,0 l/m 0,0 km/h O-NO 0,4 C 19,4 C 0,0 km/h
09.03.2012 17:00 17,3 C 32 % 1033,1 hPa 0,0 l/m 4,5 km/h N-NO 0,5 C 17,3 C 2,5 km/h
09.03.2012 18:00 7,5 C 47 % 1033,9 hPa 0,0 l/m 0,0 km/h O-SO -3,1 C 7,5 C 0,0 km/h
09.03.2012 19:00 3,6 C 61 % 1034,1 hPa 0,0 l/m 0,0 km/h O-SO -3,2 C 3,6 C 0,0 km/h
09.03.2012 20:00 2,8 C 73 % 1034,5 hPa 0,0 l/m 0,0 km/h SO -1,5 C 2,8 C 0,0 km/h
09.03.2012 21:00 1,9 C 76 % 1034,7 hPa 0,0 l/m 0,0 km/h O-SO -1,9 C 1,9 C 0,0 km/h
09.03.2012 22:00 1,3 C 78 % 1034,7 hPa 0,0 l/m 0,0 km/h O-SO -2,1 C 1,3 C 0,0 km/h
09.03.2012 23:00 0,6 C 79 % 1035,2 hPa 0,0 l/m 2,6 km/h O-SO -2,6 C 0,6 C 1,4 km/h
10.03.2012 00:00 -0,1 C 81 % 1035,0 hPa 0,0 l/m 13,6 km/h O-NO -3,0 C -6,2 C 7,6 km/h
10.03.2012 01:00 -0,9 C 83 % 1034,9 hPa 0,0 l/m 0,0 km/h O-SO -3,4 C -0,9 C 0,0 km/h
10.03.2012 02:00 -0,7 C 84 % 1034,6 hPa 0,0 l/m 0,0 km/h O-SO -3,1 C -0,7 C 0,0 km/h
10.03.2012 03:00 -1,2 C 84 % 1034,8 hPa 0,0 l/m 0,0 km/h NO -3,5 C -1,2 C 0,0 km/h
10.03.2012 04:00 -0,8 C 84 % 1034,9 hPa 0,0 l/m 0,0 km/h O-SO -3,2 C -0,8 C 0,0 km/h
10.03.2012 05:00 -0,4 C 84 % 1034,8 hPa 0,0 l/m 0,0 km/h O-NO -2,8 C -0,4 C 0,0 km/h
10.03.2012 06:00 -0,7 C 84 % 1034,8 hPa 0,0 l/m 0,0 km/h N-NO -3,1 C -0,7 C 0,0 km/h
10.03.2012 07:00 -0,1 C 85 % 1034,6 hPa 0,0 l/m 0,0 km/h SO -2,3 C -0,1 C 0,0 km/h
10.03.2012 08:00 3,6 C 77 % 1034,6 hPa 0,0 l/m 13,0 km/h S-SO -0,0 C -1,5 C 7,2 km/h
10.03.2012 09:00 8,6 C 66 % 1034,9 hPa 0,0 l/m 0,0 km/h S-SW 2,6 C 8,6 C 0,0 km/h
10.03.2012 10:00 13,4 C 47 % 1034,5 hPa 0,0 l/m 0,0 km/h N-NO 2,3 C 13,4 C 0,0 km/h
10.03.2012 11:00 15,5 C 41 % 1034,0 hPa 0,0 l/m 0,0 km/h NW 2,3 C 15,5 C 0,0 km/h
10.03.2012 12:00 15,0 C 40 % 1033,5 hPa 0,0 l/m 7,8 km/h NW 1,5 C 14,2 C 4,3 km/h
10.03.2012 13:00 14,8 C 39 % 1032,6 hPa 0,0 l/m 13,6 km/h N 1,0 C 11,4 C 7,6 km/h
10.03.2012 14:00 16,6 C 34 % 1032,0 hPa 0,0 l/m 2,6 km/h N-NO 0,7 C 16,6 C 1,4 km/h
10.03.2012 15:00 18,9 C 31 % 1031,6 hPa 0,0 l/m 19,4 km/h N 1,4 C 14,9 C 10,8 km/h
10.03.2012 16:00 19,2 C 30 % 1031,3 hPa 0,0 l/m 0,0 km/h N-NO 1,2 C 19,2 C 0,0 km/h
10.03.2012 17:00 16,8 C 33 % 1031,5 hPa 0,0 l/m 0,0 km/h O-NO 0,4 C 16,8 C 0,0 km/h
10.03.2012 18:00 9,4 C 48 % 1031,2 hPa 0,0 l/m 0,0 km/h O-SO -1,0 C 9,4 C 0,0 km/h
10.03.2012 19:00 7,8 C 61 % 1032,0 hPa 0,0 l/m 4,5 km/h O-SO 0,8 C 7,8 C 2,5 km/h
10.03.2012 20:00 7,7 C 64 % 1032,1 hPa 0,0 l/m 0,0 km/h O-SO 1,3 C 7,7 C 0,0 km/h
10.03.2012 21:00 6,3 C 68 % 1031,5 hPa 0,0 l/m 0,0 km/h O-SO 0,8 C 6,3 C 0,0 km/h
10.03.2012 22:00 5,4 C 74 % 1031,7 hPa 0,0 l/m 0,0 km/h O-SO 1,1 C 5,4 C 0,0 km/h
10.03.2012 23:00 6,1 C 74 % 1031,8 hPa 0,0 l/m 0,0 km/h O 1,8 C 6,1 C 0,0 km/h
11.03.2012 00:00 6,1 C 74 % 1031,5 hPa 0,0 l/m 0,0 km/h O 1,8 C 6,1 C 0,0 km/h
11.03.2012 01:00 6,2 C 76 % 1032,1 hPa 0,0 l/m 11,0 km/h O-SO 2,3 C 2,7 C 6,1 km/h
11.03.2012 02:00 6,1 C 76 % 1031,8 hPa 0,0 l/m 2,6 km/h O-NO 2,2 C 6,1 C 1,4 km/h
11.03.2012 03:00 4,4 C 80 % 1030,8 hPa 0,0 l/m 0,0 km/h NO 1,3 C 4,4 C 0,0 km/h
11.03.2012 04:00 4,9 C 81 % 1030,6 hPa 0,0 l/m 0,0 km/h O-SO 1,9 C 4,9 C 0,0 km/h
11.03.2012 05:00 5,4 C 82 % 1030,4 hPa 0,0 l/m 0,0 km/h N-NW 2,6 C 5,4 C 0,0 km/h
11.03.2012 06:00 5,1 C 84 % 1030,4 hPa 0,0 l/m 0,0 km/h O-NO 2,6 C 5,1 C 0,0 km/h
11.03.2012 07:00 5,5 C 84 % 1030,4 hPa 0,0 l/m 0,0 km/h SO 3,0 C 5,5 C 0,0 km/h
11.03.2012 08:00 6,4 C 83 % 1030,6 hPa 0,0 l/m 7,8 km/h N 3,7 C 5,2 C 4,3 km/h
11.03.2012 09:00 6,9 C 83 % 1030,7 hPa 0,0 l/m 0,0 km/h S-SO 4,2 C 6,9 C 0,0 km/h
11.03.2012 10:00 7,9 C 82 % 1031,0 hPa 0,0 l/m 0,0 km/h N-NW 5,0 C 7,9 C 0,0 km/h
11.03.2012 11:00 7,4 C 82 % 1031,0 hPa 0,0 l/m 0,0 km/h W-NW 4,5 C 7,4 C 0,0 km/h
11.03.2012 12:00 9,3 C 83 % 1031,1 hPa 0,0 l/m 0,0 km/h S 6,6 C 9,3 C 0,0 km/h
11.03.2012 13:00 9,6 C 83 % 1030,7 hPa 0,0 l/m 0,0 km/h O-SO 6,9 C 9,6 C 0,0 km/h
11.03.2012 14:00 12,8 C 65 % 1030,2 hPa 0,0 l/m 0,6 km/h N 6,4 C 12,8 C 0,4 km/h
11.03.2012 15:00 10,9 C 66 % 1030,3 hPa 0,0 l/m 22,7 km/h O-NO 4,8 C 3,7 C 12,6 km/h
11.03.2012 16:00 11,4 C 67 % 1030,1 hPa 0,0 l/m 0,0 km/h O 5,5 C 11,4 C 0,0 km/h
11.03.2012 17:00 10,0 C 68 % 1030,3 hPa 0,0 l/m 0,0 km/h N-NO 4,4 C 10,0 C 0,0 km/h
11.03.2012 18:00 9,1 C 70 % 1030,5 hPa 0,0 l/m 0,0 km/h N-NO 3,9 C 9,1 C 0,0 km/h
11.03.2012 19:00 7,9 C 74 % 1030,7 hPa 0,0 l/m 0,0 km/h NO 3,6 C 7,9 C 0,0 km/h
11.03.2012 20:00 7,4 C 78 % 1030,7 hPa 0,0 l/m 0,0 km/h O-SO 3,8 C 7,4 C 0,0 km/h
11.03.2012 21:00 7,4 C 79 % 1030,6 hPa 0,0 l/m 0,0 km/h O-SO 4,0 C 7,4 C 0,0 km/h
11.03.2012 22:00 7,3 C 81 % 1030,7 hPa 0,0 l/m 3,2 km/h O-SO 4,3 C 7,3 C 1,8 km/h
11.03.2012 23:00 6,8 C 81 % 1030,5 hPa 0,0 l/m 0,0 km/h O-NO 3,8 C 6,8 C 0,0 km/h
Min-Datum _ 09.03.12 09.03.12 05.03.12 - 05.03.12 - 09.03.12 05.03.12 05.03.12
_ Min-Zeit 07:30 16:30 01:30 - 00:30 - 07:30 12:30 00:30
Minimum _ -2,7 C 28 % 1012,4 hPa - 0,0 km/h - -4,7 C -9,6 C 0,0 km/h
Max-Datum _ 09.03.12 05.03.12 09.03.12 05.03.12 05.03.12 - 11.03.12 09.03.12 05.03.12
_ Max-Zeit 16:30 00:30 10:30 04:30 12:30 - 13:30 16:30 12:30
Maximum _ 19,4 C 86 % 1035,7 hPa 1,8 l/m 60,3 km/h
W
- 6,9 C 19,4 C 33,5 km/h
W
Durchschnitt _ 6,1 C 69 % 1026,4 hPa #6,1 l/m 6,4 km/h O-SO 0,4 C 4,0 C 3,5 km/h
www.sexauwetter.de